Time;durP1;ratioP1;P1;durP2;ratioP2;P2;SDS_P1;SDS_P2;PMS_P1;PMS_P2;Temp;Humidity;BMP_temperature;BMP_pressure;BME280_temperature;BME280_humidity;BME280_pressure;Samples;Min_cycle;Max_cycle;Signal;HPM_P1;HPM_P2
2023/08/28 00:00:33;;;;;;;1.77;0.93;;;;;;;;;;5032246;28;20021;-47
2023/08/28 00:02:59;;;;;;;3.75;1.20;;;15.80;99.90;;;;;;5031006;28;20481;-58
2023/08/28 00:05:25;;;;;;;1.52;0.88;;;;;;;;;;5032219;28;20029;-52
2023/08/28 00:07:51;;;;;;;1.80;0.90;;;16.90;99.90;;;;;;5032040;28;20033;-51
2023/08/28 00:10:17;;;;;;;2.83;1.45;;;;;;;;;;5032285;28;20036;-51
2023/08/28 00:12:43;;;;;;;2.92;1.35;;;12.50;99.90;;;;;;5030940;28;20507;-56
2023/08/28 00:15:10;;;;;;;3.58;1.35;;;16.20;99.90;;;;;;5030948;28;20022;-54
2023/08/28 00:17:36;;;;;;;2.75;1.50;;;;;;;;;;5032056;28;20021;-58
2023/08/28 00:20:09;;;;;;;2.00;1.20;;;11.10;99.90;;;;;;5031671;28;20116;-45
2023/08/28 00:22:37;;;;;;;3.67;1.40;;;14.30;99.90;;;;;;5032405;28;20029;-47
2023/08/28 00:25:04;;;;;;;3.55;1.25;;;15.90;99.90;;;;;;5031634;28;20095;-56
2023/08/28 00:27:30;;;;;;;2.65;1.10;;;14.60;99.90;;;;;;5031976;28;20035;-49
2023/08/28 00:29:56;;;;;;;2.30;1.30;;;;;;;;;;5031616;28;20121;-57
2023/08/28 00:32:22;;;;;;;2.63;1.40;;;15.80;99.90;;;;;;5029875;28;20108;-51
2023/08/28 00:34:49;;;;;;;2.05;1.08;;;10.60;99.90;;;;;;5031772;28;20117;-57
2023/08/28 00:37:15;;;;;;;2.25;1.10;;;;;;;;;;5031546;28;20048;-51
2023/08/28 00:39:41;;;;;;;1.77;0.80;;;13.00;99.90;;;;;;5031501;28;20045;-51
2023/08/28 00:42:07;;;;;;;3.30;1.38;;;11.60;99.90;;;;;;5031423;28;20076;-51
2023/08/28 00:44:32;;;;;;;3.03;1.00;;;15.40;99.90;;;;;;5031401;28;20105;-45
2023/08/28 00:46:59;;;;;;;2.53;0.98;;;16.80;99.90;;;;;;5031642;28;20376;-52
2023/08/28 00:49:25;;;;;;;2.00;1.30;;;11.40;99.90;;;;;;5031490;28;20497;-48
2023/08/28 00:51:51;;;;;;;1.98;0.98;;;;;;;;;;5030951;28;20036;-49
2023/08/28 00:54:17;;;;;;;3.10;1.30;;;16.30;99.90;;;;;;5031187;28;20029;-47
2023/08/28 00:56:43;;;;;;;2.17;0.80;;;;;;;;;;5031686;28;20389;-50
2023/08/28 00:59:09;;;;;;;5.00;1.08;;;15.30;99.90;;;;;;5031320;28;20025;-51
2023/08/28 01:01:34;;;;;;;2.30;1.00;;;14.40;99.90;;;;;;5030757;28;20032;-48
2023/08/28 01:04:00;;;;;;;2.15;1.00;;;14.90;99.90;;;;;;5031071;28;20021;-54
2023/08/28 01:07:08;;;;;;;1.40;0.80;;;13.40;99.90;;;;;;5030414;28;20024;-49
2023/08/28 01:09:39;;;;;;;2.75;1.20;;;14.80;99.90;;;;;;5008901;28;20037;-51
2023/08/28 01:12:15;;;;;;;1.85;1.15;;;13.70;99.90;;;;;;5024656;28;20029;-53
2023/08/28 01:15:05;;;;;;;1.33;1.00;;;11.60;99.90;;;;;;5030890;28;20152;-51
2023/08/28 01:17:31;;;;;;;2.17;1.13;;;14.20;99.90;;;;;;5020811;28;21642;-48
2023/08/28 01:19:59;;;;;;;1.77;1.00;;;15.40;99.90;;;;;;5030563;28;20453;-51
2023/08/28 01:22:57;;;;;;;1.52;0.90;;;14.30;99.90;;;;;;5030800;28;20033;-59
2023/08/28 01:25:25;;;;;;;1.63;0.95;;;13.60;99.90;;;;;;5030713;28;20025;-53
2023/08/28 01:27:52;;;;;;;2.95;1.10;;;15.00;99.90;;;;;;5031036;28;20469;-55
2023/08/28 01:30:18;;;;;;;2.28;1.00;;;;;;;;;;5030145;28;20551;-44
2023/08/28 01:32:45;;;;;;;2.80;1.10;;;11.70;99.90;;;;;;5030975;28;20025;-57
2023/08/28 01:35:10;;;;;;;2.40;1.05;;;10.80;99.90;;;;;;5030182;28;20730;-49
2023/08/28 01:37:50;;;;;;;2.72;1.33;;;10.70;99.90;;;;;;5030747;28;20031;-45
2023/08/28 01:40:17;;;;;;;;;;;13.40;99.90;;;;;;5031196;28;20033;-50
2023/08/28 01:42:46;;;;;;;3.30;1.10;;;13.70;99.90;;;;;;5030527;28;19970;-54
2023/08/28 01:45:14;;;;;;;2.38;1.25;;;14.60;99.90;;;;;;5030441;28;20033;-57
2023/08/28 01:47:40;;;;;;;2.42;0.98;;;10.80;99.90;;;;;;5030107;28;20056;-54
2023/08/28 01:50:07;;;;;;;3.25;1.52;;;;;;;;;;5030081;28;20485;-51
2023/08/28 01:52:33;;;;;;;2.88;1.17;;;;;;;;;;5030641;28;20025;-54
2023/08/28 01:54:59;;;;;;;2.42;1.25;;;14.30;99.90;;;;;;5030519;28;20039;-52
2023/08/28 01:57:25;;;;;;;2.55;1.15;;;;;;;;;;5030053;28;20041;-45
2023/08/28 01:59:51;;;;;;;1.77;1.02;;;15.00;99.90;;;;;;5030475;28;20025;-51
2023/08/28 02:02:17;;;;;;;3.15;1.42;;;;;;;;;;5029769;28;20087;-47
2023/08/28 02:04:43;;;;;;;2.60;1.15;;;10.20;99.90;;;;;;5030337;28;20101;-47
2023/08/28 02:07:09;;;;;;;2.40;1.00;;;;;;;;;;5030758;28;20366;-50
2023/08/28 02:09:34;;;;;;;2.35;1.25;;;14.10;99.90;;;;;;5030294;28;20024;-49
2023/08/28 02:12:00;;;;;;;1.65;1.08;;;;;;;;;;5030045;28;20116;-48
2023/08/28 02:14:26;;;;;;;2.00;1.00;;;14.20;99.90;;;;;;5030355;28;20025;-52
2023/08/28 02:16:51;;;;;;;4.40;1.50;;;10.90;99.90;;;;;;5029630;28;20422;-49
2023/08/28 02:19:17;;;;;;;1.77;1.13;;;;;;;;;;5029757;28;20029;-53
2023/08/28 02:21:43;;;;;;;3.67;1.45;;;;;;;;;;5030127;28;20025;-50
2023/08/28 02:24:09;;;;;;;5.22;1.27;;;14.50;99.90;;;;;;5030284;28;20443;-50
2023/08/28 02:26:35;;;;;;;2.60;1.23;;;11.00;99.90;;;;;;5030090;28;20030;-50
2023/08/28 02:29:00;;;;;;;1.83;1.20;;;14.20;99.90;;;;;;5030061;28;20030;-48
2023/08/28 02:31:26;;;;;;;3.80;1.33;;;13.90;99.90;;;;;;5030032;28;20030;-44
2023/08/28 02:33:52;;;;;;;2.47;1.13;;;;;;;;;;5029522;28;20025;-44
2023/08/28 02:36:17;;;;;;;3.38;1.17;;;12.10;99.90;;;;;;5030190;28;20036;-46
2023/08/28 02:38:43;;;;;;;2.42;1.00;;;13.40;99.90;;;;;;5030057;28;20046;-44
2023/08/28 02:41:08;;;;;;;1.92;1.10;;;14.10;99.90;;;;;;5029599;28;20021;-44
2023/08/28 02:43:34;;;;;;;2.22;1.08;;;9.90;99.90;;;;;;5011922;28;20396;-47
2023/08/28 02:46:01;;;;;;;1.48;0.85;;;12.90;99.90;;;;;;5029744;28;20021;-47
2023/08/28 02:48:27;;;;;;;2.65;1.20;;;14.00;99.90;;;;;;5029476;28;20108;-46
2023/08/28 02:50:53;;;;;;;2.45;1.20;;;9.60;99.90;;;;;;5029944;28;20029;-53
2023/08/28 02:53:19;;;;;;;2.92;1.15;;;;;;;;;;5029930;28;20071;-47
2023/08/28 02:56:25;;;;;;;1.73;1.02;;;10.90;99.90;;;;;;5029888;28;20075;-52
2023/08/28 02:58:51;;;;;;;2.10;1.02;;;13.70;99.90;;;;;;5029252;28;20566;-48
2023/08/28 03:01:18;;;;;;;2.10;1.10;;;9.50;99.90;;;;;;5029786;28;20083;-51
2023/08/28 03:03:45;;;;;;;2.28;1.20;;;;;;;;;;5029435;28;20052;-46
2023/08/28 03:06:11;;;;;;;2.70;1.30;;;9.80;99.90;;;;;;5030053;28;20057;-53
2023/08/28 03:08:36;;;;;;;3.15;1.17;;;;;;;;;;5029529;28;20065;-45
2023/08/28 03:11:02;;;;;;;3.65;1.10;;;10.40;99.90;;;;;;5029694;28;20030;-54
2023/08/28 03:13:28;;;;;;;3.63;1.20;;;9.10;99.90;;;;;;5029284;28;20046;-51
2023/08/28 03:15:54;;;;;;;2.00;1.15;;;;;;;;;;5032052;28;20083;-51
2023/08/28 03:18:20;;;;;;;2.75;1.27;;;;;;;;;;5032462;28;20029;-45
2023/08/28 03:20:45;;;;;;;2.05;0.90;;;14.00;99.90;;;;;;5032029;28;20116;-49
2023/08/28 03:23:11;;;;;;;2.95;1.08;;;14.20;99.90;;;;;;5032776;28;20025;-47
2023/08/28 03:25:37;;;;;;;1.83;1.10;;;13.90;99.90;;;;;;5033059;28;20017;-53
2023/08/28 03:28:07;;;;;;;3.00;1.20;;;13.80;99.90;;;;;;5033108;28;20520;-53
2023/08/28 03:30:32;;;;;;;1.67;1.10;;;13.10;99.90;;;;;;5032553;28;20461;-50
2023/08/28 03:32:58;;;;;;;3.60;1.17;;;13.80;99.90;;;;;;5032773;28;20104;-57
2023/08/28 03:35:23;;;;;;;1.70;1.02;;;9.60;99.90;;;;;;5032664;28;20113;-55
2023/08/28 03:37:49;;;;;;;2.67;1.40;;;13.70;99.90;;;;;;5032589;28;20045;-57
2023/08/28 03:40:14;;;;;;;1.95;1.10;;;11.00;99.90;;;;;;5032509;28;20025;-53
2023/08/28 03:42:40;;;;;;;4.68;1.23;;;14.10;99.90;;;;;;5032918;28;20381;-49
2023/08/28 03:45:06;;;;;;;1.65;1.10;;;;;;;;;;5032524;28;20026;-45
2023/08/28 03:47:32;;;;;;;2.22;1.27;;;14.00;99.90;;;;;;5032769;28;20037;-52
2023/08/28 03:49:58;;;;;;;3.80;1.00;;;;;;;;;;5031911;28;20020;-45
2023/08/28 03:52:23;;;;;;;2.08;1.08;;;13.20;99.90;;;;;;5032652;28;20025;-53
2023/08/28 03:54:49;;;;;;;1.55;1.00;;;14.10;99.90;;;;;;5032288;28;20108;-57
2023/08/28 03:57:15;;;;;;;7.35;1.77;;;;;;;;;;5032444;28;20045;-52
2023/08/28 03:59:41;;;;;;;3.47;1.30;;;12.90;99.90;;;;;;5032654;28;20171;-52
2023/08/28 04:02:07;;;;;;;1.90;1.05;;;;;;;;;;5031774;28;20029;-53
2023/08/28 04:04:32;;;;;;;2.58;1.20;;;13.80;99.90;;;;;;5032314;28;20096;-53
2023/08/28 04:07:01;;;;;;;3.83;1.42;;;;;;;;;;5032168;28;20037;-48
2023/08/28 04:09:27;;;;;;;2.45;1.17;;;12.60;99.90;;;;;;5032315;28;20026;-56
2023/08/28 04:11:53;;;;;;;4.38;1.40;;;9.80;99.90;;;;;;5031935;28;20025;-51
2023/08/28 04:14:18;;;;;;;3.15;1.20;;;10.30;99.90;;;;;;5032224;28;20038;-54
2023/08/28 04:16:44;;;;;;;3.75;1.17;;;14.60;99.90;;;;;;5031793;28;20512;-48
2023/08/28 04:19:10;;;;;;;1.35;0.90;;;13.80;99.90;;;;;;5032062;28;20025;-52
2023/08/28 04:21:35;;;;;;;1.08;0.95;;;13.30;99.90;;;;;;5031778;28;20037;-57
2023/08/28 04:24:01;;;;;;;4.75;1.40;;;13.80;99.90;;;;;;5032065;28;20139;-49
2023/08/28 04:26:26;;;;;;;2.70;1.10;;;13.10;99.90;;;;;;5030712;28;20026;-46
2023/08/28 04:28:53;;;;;;;2.03;1.08;;;12.40;99.90;;;;;;5031966;28;20515;-47
2023/08/28 04:31:19;;;;;;;1.85;1.15;;;13.80;99.90;;;;;;5031617;28;20040;-52
2023/08/28 04:33:44;;;;;;;2.50;1.42;;;9.40;99.90;;;;;;5031501;28;20029;-54
2023/08/28 04:36:10;;;;;;;2.22;1.05;;;14.10;99.90;;;;;;5031763;28;20056;-55
2023/08/28 04:38:36;;;;;;;2.67;1.50;;;;;;;;;;5031527;28;20457;-47
2023/08/28 04:41:02;;;;;;;4.30;1.40;;;14.80;99.90;;;;;;5031664;28;20164;-49
2023/08/28 04:43:28;;;;;;;2.08;1.20;;;13.80;99.90;;;;;;5031475;28;20045;-47
2023/08/28 04:45:53;;;;;;;3.35;1.48;;;12.60;99.90;;;;;;5031679;28;20032;-56
2023/08/28 04:48:19;;;;;;;3.88;1.65;;;13.10;99.90;;;;;;5031160;28;20563;-47
2023/08/28 04:50:45;;;;;;;3.15;1.08;;;13.40;99.90;;;;;;5031061;28;20036;-54
2023/08/28 04:53:10;;;;;;;2.33;1.13;;;14.70;99.90;;;;;;5030837;28;20032;-52
2023/08/28 04:55:39;;;;;;;2.17;1.20;;;12.90;99.90;;;;;;5031226;28;20032;-49
2023/08/28 04:58:05;;;;;;;1.97;1.13;;;13.10;99.90;;;;;;5031866;28;20033;-55
2023/08/28 05:00:31;;;;;;;3.00;1.33;;;;;;;;;;5031176;28;20480;-46
2023/08/28 05:02:57;;;;;;;3.17;1.45;;;13.20;99.90;;;;;;5031303;28;20746;-54
2023/08/28 05:05:22;;;;;;;2.25;1.10;;;10.00;99.90;;;;;;5031055;28;20043;-49
2023/08/28 05:07:48;;;;;;;4.32;1.27;;;14.70;99.90;;;;;;5030880;28;20029;-56
2023/08/28 05:10:14;;;;;;;5.65;1.70;;;;;;;;;;5031103;28;20022;-52
2023/08/28 05:12:39;;;;;;;4.07;1.20;;;14.50;99.90;;;;;;5031153;28;20045;-54
2023/08/28 05:15:06;;;;;;;2.35;1.05;;;13.60;99.90;;;;;;5031327;28;20032;-53
2023/08/28 05:17:31;;;;;;;2.33;1.17;;;13.80;99.90;;;;;;5030850;28;20075;-52
2023/08/28 05:19:57;;;;;;;2.95;1.23;;;10.40;99.90;;;;;;5031189;28;20084;-46
2023/08/28 05:22:22;;;;;;;1.75;1.00;;;13.10;99.90;;;;;;5029794;28;20029;-50
2023/08/28 05:24:48;;;;;;;4.20;1.17;;;13.40;99.90;;;;;;5030613;28;20029;-51
2023/08/28 05:27:13;;;;;;;1.83;1.20;;;10.40;99.90;;;;;;5030532;28;20028;-46
2023/08/28 05:29:39;;;;;;;2.42;1.08;;;13.10;99.90;;;;;;5031111;28;20744;-51
2023/08/28 05:32:05;;;;;;;2.15;1.23;;;14.70;99.90;;;;;;5030777;28;20017;-49
2023/08/28 05:34:32;;;;;;;1.90;1.25;;;13.30;99.90;;;;;;5030703;28;20032;-54
2023/08/28 05:36:58;;;;;;;3.15;1.52;;;;;;;;;;5030661;28;20033;-52
2023/08/28 05:39:24;;;;;;;1.40;1.08;;;10.30;99.90;;;;;;5030211;28;20025;-53
2023/08/28 05:41:49;;;;;;;2.25;1.30;;;10.60;99.90;;;;;;5030510;28;20034;-49
2023/08/28 05:44:15;;;;;;;4.22;1.40;;;13.70;99.90;;;;;;5030785;28;20025;-49
2023/08/28 05:46:40;;;;;;;3.38;1.20;;;12.70;99.90;;;;;;5030568;28;20380;-49
2023/08/28 05:49:07;;;;;;;2.38;0.90;;;14.00;99.90;;;;;;5030225;28;20030;-54
2023/08/28 06:02:13;;;;;;;3.38;1.17;;;13.00;99.90;;;;;;5149349;27;20377;-50
2023/08/28 06:04:39;;;;;;;1.90;1.13;;;14.50;99.90;;;;;;5131073;27;20029;-47
2023/08/28 06:07:04;;;;;;;4.53;1.30;;;11.70;99.90;;;;;;5149173;27;20035;-52
2023/08/28 06:09:31;;;;;;;2.60;1.20;;;11.80;99.90;;;;;;5147208;27;20022;-52
2023/08/28 06:11:56;;;;;;;2.28;1.13;;;14.80;99.90;;;;;;5148870;27;20080;-51
2023/08/28 06:14:22;;;;;;;1.75;1.08;;;11.80;99.90;;;;;;5149340;27;20015;-47
2023/08/28 06:16:48;;;;;;;2.20;1.23;;;14.60;99.90;;;;;;5149153;27;20091;-48
2023/08/28 06:19:14;;;;;;;3.88;1.48;;;;;;;;;;5148712;27;20395;-47
2023/08/28 06:21:44;;;;;;;3.72;1.20;;;;;;;;;;5148376;27;20051;-45
2023/08/28 06:24:10;;;;;;;1.30;0.95;;;10.50;99.90;;;;;;5148305;27;20386;-46
2023/08/28 06:26:36;;;;;;;3.90;1.40;;;;;;;;;;5138806;27;20019;-44
2023/08/28 06:29:03;;;;;;;1.65;0.98;;;14.50;99.90;;;;;;5129177;27;20026;-46
2023/08/28 06:31:29;;;;;;;1.88;0.93;;;;;;;;;;5145746;27;20483;-45
2023/08/28 06:33:54;;;;;;;2.40;1.10;;;;;;;;;;5146034;27;20059;-45
2023/08/28 06:36:20;;;;;;;1.90;1.10;;;11.90;99.90;;;;;;5145818;27;20027;-45
2023/08/28 06:38:48;;;;;;;2.90;1.00;;;15.10;99.90;;;;;;5133981;27;20428;-54
2023/08/28 06:41:14;;;;;;;1.42;1.05;;;14.00;99.90;;;;;;5134400;27;20050;-50
2023/08/28 06:43:39;;;;;;;2.10;1.08;;;14.90;99.90;;;;;;5142959;27;20467;-48
2023/08/28 06:46:06;;;;;;;2.15;1.10;;;;;;;;;;5142645;27;20126;-54
2023/08/28 06:48:32;;;;;;;4.18;1.23;;;16.70;99.90;;;;;;5136345;27;20035;-48
2023/08/28 06:50:58;;;;;;;3.30;1.35;;;16.60;99.90;;;;;;5131327;27;20043;-56
2023/08/28 06:53:23;;;;;;;2.30;1.10;;;14.30;99.90;;;;;;5130974;27;20090;-48
2023/08/28 06:55:49;;;;;;;2.50;1.00;;;11.70;99.90;;;;;;5135283;27;20180;-49
2023/08/28 06:58:15;;;;;;;1.90;1.27;;;;;;;;;;5130896;27;20027;-46
2023/08/28 07:00:41;;;;;;;2.17;1.30;;;17.30;99.90;;;;;;5130664;27;20049;-45
2023/08/28 07:03:07;;;;;;;3.42;1.25;;;;;;;;;;5133635;27;20024;-46
2023/08/28 07:05:32;;;;;;;1.85;1.05;;;18.20;99.90;;;;;;5133223;27;20476;-45
2023/08/28 07:07:58;;;;;;;2.67;1.30;;;17.90;99.90;;;;;;5127495;27;20038;-48
2023/08/28 07:10:24;;;;;;;2.05;1.10;;;19.50;99.90;;;;;;5123380;27;20126;-53
2023/08/28 07:12:49;;;;;;;2.65;1.00;;;20.50;99.90;;;;;;5120644;27;20049;-47
2023/08/28 07:15:17;;;;;;;3.20;0.98;;;20.10;99.90;;;;;;5115348;27;20542;-47
2023/08/28 07:17:43;;;;;;;1.65;1.00;;;20.50;99.90;;;;;;5123902;27;20031;-49
2023/08/28 07:20:09;;;;;;;2.22;1.10;;;;;;;;;;5133783;27;20118;-46
2023/08/28 07:22:36;;;;;;;1.48;0.75;;;21.30;99.90;;;;;;5121083;27;20042;-50
2023/08/28 07:25:02;;;;;;;2.22;1.10;;;21.70;99.90;;;;;;5130918;27;20023;-51
2023/08/28 07:27:27;;;;;;;2.10;0.88;;;22.50;99.90;;;;;;5133913;27;20509;-49
2023/08/28 07:29:53;;;;;;;3.10;1.73;;;23.60;99.90;;;;;;5133974;27;20062;-52
2023/08/28 07:32:19;;;;;;;2.15;1.00;;;21.70;99.90;;;;;;5133304;27;20046;-47
2023/08/28 07:34:44;;;;;;;2.33;0.90;;;23.40;99.90;;;;;;5133444;27;20038;-46
2023/08/28 07:37:10;;;;;;;3.28;0.90;;;23.30;99.90;;;;;;5128743;27;20035;-52
2023/08/28 07:39:36;;;;;;;1.30;0.80;;;24.90;99.90;;;;;;5124531;27;20506;-48
2023/08/28 07:42:02;;;;;;;1.52;0.75;;;24.30;99.90;;;;;;5115348;27;20027;-50
2023/08/28 07:44:28;;;;;;;1.70;0.95;;;23.10;99.90;;;;;;5124659;27;20110;-45
2023/08/28 07:46:54;;;;;;;1.85;1.10;;;;;;;;;;5117444;27;20038;-50
2023/08/28 07:49:20;;;;;;;2.90;1.08;;;21.30;99.90;;;;;;5124050;27;20032;-45
2023/08/28 07:51:45;;;;;;;1.30;0.90;;;23.10;99.90;;;;;;5132106;27;20070;-54
2023/08/28 07:54:11;;;;;;;2.47;1.05;;;23.70;99.90;;;;;;5117579;27;20035;-50
2023/08/28 07:56:37;;;;;;;1.88;1.10;;;24.00;99.90;;;;;;5118023;27;20035;-48
2023/08/28 07:59:04;;;;;;;1.98;0.90;;;23.50;99.90;;;;;;5112768;28;20348;-51
2023/08/28 08:01:30;;;;;;;1.38;0.82;;;23.50;99.90;;;;;;5125212;27;20051;-51
2023/08/28 08:03:57;;;;;;;1.42;0.60;;;24.30;99.90;;;;;;5112846;28;20027;-49
2023/08/28 08:06:23;;;;;;;1.30;0.82;;;24.70;99.90;;;;;;5112601;28;20023;-45
2023/08/28 08:08:49;;;;;;;0.75;0.65;;;24.20;99.90;;;;;;5121861;27;20051;-54
2023/08/28 08:11:15;;;;;;;0.75;0.60;;;24.40;99.90;;;;;;5112630;28;20435;-45
2023/08/28 08:13:40;;;;;;;0.60;0.60;;;24.80;99.90;;;;;;5111493;28;20028;-48
2023/08/28 08:16:06;;;;;;;1.33;0.60;;;25.00;99.90;;;;;;5112623;28;20536;-46
2023/08/28 08:18:32;;;;;;;0.70;0.57;;;25.10;99.90;;;;;;5112294;28;20023;-49
2023/08/28 08:20:58;;;;;;;1.35;0.65;;;25.30;99.90;;;;;;5112545;28;20020;-50
2023/08/28 08:23:24;;;;;;;1.27;0.80;;;24.90;99.90;;;;;;5116746;27;20459;-52
2023/08/28 08:25:52;;;;;;;1.08;0.63;;;24.80;99.90;;;;;;5122703;27;20027;-49
2023/08/28 08:28:17;;;;;;;0.70;0.50;;;24.10;99.90;;;;;;5102795;27;20433;-51
2023/08/28 08:30:43;;;;;;;1.15;0.85;;;22.80;99.90;;;;;;5123995;27;20041;-53
2023/08/28 08:33:10;;;;;;;1.00;0.60;;;22.90;99.90;;;;;;5131063;27;20022;-50
2023/08/28 08:35:35;;;;;;;0.70;0.65;;;22.50;99.90;;;;;;5106627;27;20031;-52
2023/08/28 08:38:01;;;;;;;1.25;0.77;;;22.70;99.90;;;;;;5119497;27;20464;-49
2023/08/28 08:40:27;;;;;;;2.83;1.10;;;22.80;99.90;;;;;;5114086;27;20424;-52
2023/08/28 08:42:54;;;;;;;1.13;0.65;;;23.40;99.90;;;;;;5112377;27;20436;-48
2023/08/28 08:45:28;;;;;;;1.67;0.60;;;24.50;99.90;;;;;;5123013;27;20023;-51
2023/08/28 08:47:54;;;;;;;1.55;0.70;;;25.00;99.90;;;;;;5116552;27;20020;-50
2023/08/28 08:50:22;;;;;;;1.80;0.70;;;25.00;99.90;;;;;;5112132;27;20035;-45
2023/08/28 08:52:49;;;;;;;0.95;0.55;;;24.70;98.80;;;;;;5115776;27;20034;-56
2023/08/28 08:55:34;;;;;;;1.08;0.65;;;24.30;99.90;;;;;;5114033;27;20371;-46
2023/08/28 08:58:04;;;;;;;1.23;0.70;;;23.70;99.90;;;;;;5121812;27;20076;-51
2023/08/28 09:00:29;;;;;;;0.82;0.50;;;22.60;99.90;;;;;;5128309;27;20475;-47
2023/08/28 09:02:57;;;;;;;0.70;0.60;;;21.50;99.90;;;;;;5129868;27;20039;-49
2023/08/28 09:05:23;;;;;;;1.70;0.75;;;22.40;99.90;;;;;;5101828;28;20467;-51
2023/08/28 09:07:49;;;;;;;1.80;0.70;;;20.20;99.90;;;;;;5111503;28;20391;-48
2023/08/28 09:10:16;;;;;;;1.00;0.60;;;;;;;;;;5112810;27;20483;-47
2023/08/28 09:12:42;;;;;;;3.13;0.70;;;21.00;99.90;;;;;;5108709;27;20034;-49
2023/08/28 09:15:10;;;;;;;1.27;0.65;;;21.90;99.90;;;;;;5115237;27;20084;-47
2023/08/28 09:17:41;;;;;;;2.53;0.70;;;22.70;99.90;;;;;;5117353;27;20023;-55
2023/08/28 09:20:17;;;;;;;1.52;1.00;;;22.10;99.90;;;;;;5113598;27;20019;-54
2023/08/28 09:22:51;;;;;;;1.98;1.13;;;22.00;99.90;;;;;;5125705;27;20087;-50
2023/08/28 09:25:18;;;;;;;2.63;0.88;;;22.90;99.90;;;;;;5127721;27;20027;-48
2023/08/28 09:27:45;;;;;;;1.38;0.77;;;21.40;99.90;;;;;;5124305;27;20058;-46
2023/08/28 09:30:28;;;;;;;2.35;0.70;;;19.70;99.90;;;;;;5126452;27;20038;-50
2023/08/28 09:32:56;;;;;;;1.23;0.70;;;22.00;99.90;;;;;;5120379;27;20024;-46
2023/08/28 09:35:22;;;;;;;1.20;0.60;;;19.10;99.90;;;;;;5111413;27;20031;-49
2023/08/28 09:37:57;;;;;;;4.45;1.00;;;18.80;99.90;;;;;;5121563;27;20089;-56
2023/08/28 09:40:31;;;;;;;1.08;0.70;;;21.60;99.90;;;;;;5123117;27;20019;-46
2023/08/28 09:43:00;;;;;;;1.95;0.80;;;22.30;99.90;;;;;;5111135;28;20084;-55
2023/08/28 09:45:33;;;;;;;1.08;0.70;;;22.80;99.90;;;;;;5123627;27;20087;-49
2023/08/28 09:47:59;;;;;;;2.97;0.80;;;23.50;99.90;;;;;;5119524;28;20023;-52
2023/08/28 09:50:28;;;;;;;2.03;0.80;;;23.60;99.90;;;;;;5116420;28;20486;-46
2023/08/28 09:52:54;;;;;;;0.93;0.60;;;24.90;99.90;;;;;;5126197;27;20069;-48
2023/08/28 09:55:20;;;;;;;0.90;0.63;;;23.20;99.90;;;;;;5127799;27;20110;-51
2023/08/28 09:57:46;;;;;;;2.08;0.80;;;22.00;99.90;;;;;;5122486;27;20039;-52
2023/08/28 10:00:13;;;;;;;0.95;0.75;;;22.70;99.90;;;;;;5119889;28;20511;-50
2023/08/28 10:02:39;;;;;;;1.65;0.80;;;22.50;99.90;;;;;;5122173;28;20028;-47
2023/08/28 10:05:10;;;;;;;1.13;0.70;;;20.70;99.90;;;;;;5111775;28;20494;-48
2023/08/28 10:07:39;;;;;;;1.30;0.90;;;23.90;99.90;;;;;;5109561;28;20030;-54
2023/08/28 10:10:07;;;;;;;1.30;0.75;;;26.30;99.90;;;;;;5110311;28;20047;-48
2023/08/28 10:12:34;;;;;;;1.75;0.60;;;24.90;99.10;;;;;;5111223;28;20126;-51
2023/08/28 10:15:03;;;;;;;0.85;0.55;;;26.90;99.90;;;;;;5110332;28;20102;-48
2023/08/28 10:17:32;;;;;;;0.98;0.60;;;23.40;99.50;;;;;;5110757;28;20039;-50
2023/08/28 10:20:00;;;;;;;1.63;0.60;;;24.00;99.30;;;;;;5117128;27;20478;-52
2023/08/28 10:22:27;;;;;;;2.95;0.77;;;22.90;99.90;;;;;;5117079;28;20027;-47
2023/08/28 10:24:56;;;;;;;1.15;0.63;;;24.80;99.20;;;;;;5108390;28;20400;-51
2023/08/28 10:27:22;;;;;;;1.00;0.63;;;24.50;98.60;;;;;;5108758;28;20468;-46
2023/08/28 10:29:48;;;;;;;1.88;0.70;;;25.00;99.50;;;;;;5108703;28;20031;-47
2023/08/28 10:32:14;;;;;;;3.10;0.88;;;24.40;99.60;;;;;;5123518;28;20031;-53
2023/08/28 10:34:42;;;;;;;1.95;0.70;;;20.90;98.50;;;;;;5129194;28;20479;-49
2023/08/28 10:37:12;;;;;;;0.95;0.70;;;21.90;99.20;;;;;;5132388;27;20031;-54
2023/08/28 10:39:40;;;;;;;1.38;0.98;;;22.70;99.70;;;;;;5129006;27;20011;-50
2023/08/28 10:42:12;;;;;;;1.73;0.90;;;20.70;99.90;;;;;;5130173;27;20041;-48
2023/08/28 10:44:38;;;;;;;0.73;0.63;;;;;;;;;;5127893;27;20016;-53
2023/08/28 10:47:05;;;;;;;1.00;0.70;;;19.80;99.90;;;;;;5123615;27;20089;-46
2023/08/28 10:49:32;;;;;;;0.88;0.60;;;22.70;99.60;;;;;;5102755;27;20081;-46
2023/08/28 10:52:04;;;;;;;0.80;0.52;;;21.00;99.90;;;;;;5114122;28;20048;-49
2023/08/28 10:54:38;;;;;;;1.45;0.95;;;23.00;99.90;;;;;;5114024;28;20028;-49
2023/08/28 10:57:06;;;;;;;1.83;1.00;;;20.60;99.90;;;;;;5113964;28;20507;-46
2023/08/28 10:59:42;;;;;;;1.70;0.90;;;23.10;99.90;;;;;;5114620;27;20020;-47
2023/08/28 11:02:09;;;;;;;4.25;1.05;;;22.70;99.90;;;;;;5121633;27;20515;-46
2023/08/28 11:04:37;;;;;;;1.52;0.88;;;19.60;99.90;;;;;;5134136;27;20379;-58
2023/08/28 11:07:04;;;;;;;2.13;0.93;;;23.50;99.90;;;;;;5134469;27;20046;-51
2023/08/28 11:09:29;;;;;;;1.83;1.00;;;22.60;99.90;;;;;;5123250;27;20114;-52
2023/08/28 11:11:58;;;;;;;1.38;0.80;;;23.10;99.90;;;;;;5121272;27;20563;-48
2023/08/28 11:14:24;;;;;;;1.55;1.02;;;22.50;99.90;;;;;;5113840;28;20047;-46
2023/08/28 11:17:10;;;;;;;4.65;1.05;;;23.60;99.90;;;;;;5113715;28;20028;-48
2023/08/28 11:19:53;;;;;;;1.20;0.80;;;23.10;99.90;;;;;;5113580;28;20043;-45
2023/08/28 11:22:42;;;;;;;1.45;0.90;;;22.60;99.90;;;;;;5113391;27;20028;-54
2023/08/28 11:25:10;;;;;;;4.38;1.08;;;22.40;99.90;;;;;;5122535;27;20539;-55
2023/08/28 11:27:45;;;;;;;1.25;0.82;;;23.50;99.90;;;;;;5119094;27;20379;-51
2023/08/28 11:30:12;;;;;;;1.80;0.95;;;23.80;99.90;;;;;;5120989;27;20027;-47
2023/08/28 11:32:40;;;;;;;1.60;0.70;;;20.80;99.60;;;;;;5120440;27;20039;-53
2023/08/28 11:35:13;;;;;;;3.92;3.10;;;22.40;99.90;;;;;;5120028;27;20027;-49
2023/08/28 11:37:41;;;;;;;1.13;0.82;;;22.60;99.90;;;;;;5125390;27;20059;-48
2023/08/28 11:40:08;;;;;;;1.33;0.90;;;19.40;99.70;;;;;;5116692;27;20011;-53
2023/08/28 11:42:38;;;;;;;2.20;0.90;;;19.50;99.80;;;;;;5118428;27;20035;-50
2023/08/28 11:45:05;;;;;;;1.30;0.77;;;22.10;99.90;;;;;;5127168;27;20050;-47
2023/08/28 11:47:32;;;;;;;1.58;0.90;;;22.60;99.90;;;;;;5119988;27;20515;-48
2023/08/28 11:49:59;;;;;;;1.45;0.90;;;24.30;99.90;;;;;;5111955;27;20036;-49
2023/08/28 11:52:25;;;;;;;1.08;0.70;;;18.50;99.90;;;;;;5115607;27;20039;-49
2023/08/28 11:54:52;;;;;;;3.17;0.90;;;21.70;99.90;;;;;;5111774;28;20031;-49
2023/08/28 11:57:19;;;;;;;2.72;1.10;;;20.90;99.90;;;;;;5112021;28;20071;-47
2023/08/28 11:59:47;;;;;;;2.70;1.00;;;18.70;99.90;;;;;;5112459;28;20027;-55
2023/08/28 12:02:14;;;;;;;1.13;0.80;;;20.90;99.90;;;;;;5121446;27;20035;-52
2023/08/28 12:04:41;;;;;;;1.40;0.80;;;21.20;99.90;;;;;;5131878;27;20023;-47
2023/08/28 12:07:17;;;;;;;2.05;0.70;;;23.40;99.90;;;;;;5131264;27;20487;-47
2023/08/28 12:09:44;;;;;;;1.38;0.80;;;24.00;99.90;;;;;;5131364;27;20106;-55
2023/08/28 12:12:10;;;;;;;1.70;1.00;;;24.10;99.90;;;;;;5131603;27;20023;-46
2023/08/28 12:14:35;;;;;;;2.10;0.88;;;23.80;99.90;;;;;;5131688;27;20079;-48
2023/08/28 12:17:01;;;;;;;1.75;0.75;;;18.40;99.90;;;;;;5131443;27;20023;-52
2023/08/28 12:19:26;;;;;;;1.00;0.60;;;21.70;99.90;;;;;;5132569;27;20019;-50
2023/08/28 12:22:03;;;;;;;2.15;1.30;;;21.20;99.90;;;;;;5132854;27;20452;-50
2023/08/28 12:24:29;;;;;;;1.98;1.08;;;21.80;99.90;;;;;;5133098;27;20031;-45
2023/08/28 12:26:56;;;;;;;1.45;0.90;;;22.90;99.90;;;;;;5133149;27;20019;-52
2023/08/28 12:29:24;;;;;;;1.77;0.80;;;24.30;99.90;;;;;;5133129;27;20011;-49
2023/08/28 12:31:50;;;;;;;1.27;0.80;;;23.30;99.90;;;;;;5133001;27;20039;-48
2023/08/28 12:34:15;;;;;;;1.58;0.88;;;22.90;99.90;;;;;;5118514;27;20023;-50
2023/08/28 12:36:46;;;;;;;1.10;0.80;;;23.30;99.90;;;;;;5132981;27;20024;-49
2023/08/28 12:39:16;;;;;;;1.52;0.80;;;19.90;99.90;;;;;;5132617;27;20024;-49
2023/08/28 12:41:50;;;;;;;1.05;0.70;;;22.50;99.90;;;;;;5133011;27;20024;-49
2023/08/28 12:44:16;;;;;;;1.48;0.93;;;23.10;99.90;;;;;;5132534;27;20099;-46
2023/08/28 12:46:41;;;;;;;1.20;0.77;;;23.60;99.90;;;;;;5132772;27;20098;-48
2023/08/28 12:49:08;;;;;;;1.25;0.90;;;23.00;99.90;;;;;;5132436;27;20027;-51
2023/08/28 12:51:34;;;;;;;1.25;0.85;;;23.10;99.90;;;;;;5132517;27;20114;-50
2023/08/28 12:54:00;;;;;;;3.60;0.93;;;;;;;;;;5132379;27;20019;-49
2023/08/28 12:56:26;;;;;;;1.05;0.70;;;23.20;99.90;;;;;;5113957;27;20161;-49
2023/08/28 12:58:52;;;;;;;2.08;1.10;;;22.90;99.90;;;;;;5132718;27;20105;-54
2023/08/28 13:01:17;;;;;;;1.85;1.13;;;22.80;99.90;;;;;;5116943;27;20048;-52
2023/08/28 13:03:44;;;;;;;1.80;1.13;;;;;;;;;;5132392;27;20016;-46
2023/08/28 13:06:09;;;;;;;1.27;0.82;;;18.90;99.90;;;;;;5132016;27;20102;-49
2023/08/28 13:08:36;;;;;;;1.20;0.80;;;23.40;99.90;;;;;;5132048;27;20106;-53
2023/08/28 13:11:01;;;;;;;1.65;1.08;;;23.10;99.90;;;;;;5132275;27;20031;-52
2023/08/28 13:13:27;;;;;;;1.60;0.90;;;;;;;;;;5132022;27;20402;-49